Time;durP1;ratioP1;P1;durP2;ratioP2;P2;SDS_P1;SDS_P2;PMS_P1;PMS_P2;Temp;Humidity;BMP_temperature;BMP_pressure;BME280_temperature;BME280_humidity;BME280_pressure;Samples;Min_cycle;Max_cycle;Signal;HPM_P1;HPM_P2
2021/05/16 00:02:20;;;;;;;3.13;0.60;;;9.70;96.90;;;;;;5087929;28;20037;-76
2021/05/16 00:04:46;;;;;;;3.78;1.10;;;9.70;96.80;;;;;;5088548;28;20037;-75
2021/05/16 00:07:11;;;;;;;4.88;0.95;;;9.70;96.80;;;;;;5089703;28;20052;-75
2021/05/16 00:09:37;;;;;;;2.47;0.73;;;9.70;96.70;;;;;;5072653;28;20055;-69
2021/05/16 00:12:04;;;;;;;2.80;1.10;;;9.70;96.60;;;;;;5090372;28;20028;-75
2021/05/16 00:14:30;;;;;;;2.03;0.65;;;9.70;96.80;;;;;;5091411;28;20093;-75
2021/05/16 00:16:56;;;;;;;1.73;0.85;;;9.70;96.70;;;;;;5090234;28;20028;-73
2021/05/16 00:19:22;;;;;;;3.72;0.70;;;9.70;96.80;;;;;;5090499;28;20102;-75
2021/05/16 00:21:49;;;;;;;3.70;0.50;;;9.70;96.80;;;;;;5090551;28;20485;-75
2021/05/16 00:24:15;;;;;;;2.35;0.50;;;9.70;96.90;;;;;;5090831;28;20094;-75
2021/05/16 00:26:40;;;;;;;2.20;0.60;;;9.80;96.60;;;;;;5090235;28;20398;-68
2021/05/16 00:29:07;;;;;;;2.63;0.80;;;9.80;96.60;;;;;;5090917;28;20111;-76
2021/05/16 00:31:33;;;;;;;4.78;0.93;;;9.80;96.50;;;;;;5087580;28;20154;-77
2021/05/16 00:33:58;;;;;;;4.38;1.08;;;9.80;96.20;;;;;;5089168;28;20020;-77
2021/05/16 00:36:24;;;;;;;0.75;0.50;;;9.80;96.20;;;;;;5089664;28;20031;-76
2021/05/16 00:38:50;;;;;;;3.65;0.60;;;9.80;96.10;;;;;;5090270;28;20020;-76
2021/05/16 00:41:16;;;;;;;2.55;0.77;;;9.90;96.10;;;;;;5089882;28;20032;-76
2021/05/16 00:43:41;;;;;;;4.30;0.77;;;9.90;96.20;;;;;;5089805;28;20036;-73
2021/05/16 00:46:09;;;;;;;6.38;1.17;;;9.80;96.30;;;;;;5094588;28;20032;-76
2021/05/16 00:48:38;;;;;;;2.03;0.80;;;9.90;96.50;;;;;;5094732;28;20052;-74
2021/05/16 00:51:05;;;;;;;4.63;0.73;;;9.90;96.40;;;;;;5093571;28;20020;-74
2021/05/16 00:53:31;;;;;;;2.40;0.70;;;9.90;96.40;;;;;;5094014;28;20020;-76
2021/05/16 00:55:57;;;;;;;1.90;0.77;;;9.90;96.20;;;;;;5085440;28;20815;-75
2021/05/16 00:58:25;;;;;;;2.90;0.90;;;9.90;96.30;;;;;;5090836;28;20082;-76
2021/05/16 01:00:51;;;;;;;3.83;0.50;;;9.90;96.40;;;;;;5073021;28;20378;-76
2021/05/16 01:03:17;;;;;;;1.80;0.60;;;9.90;96.70;;;;;;5073689;28;20100;-76
2021/05/16 01:05:43;;;;;;;2.58;1.00;;;9.90;97.30;;;;;;5073089;28;20063;-76
2021/05/16 01:08:10;;;;;;;1.88;0.77;;;9.90;98.00;;;;;;5073833;28;20071;-76
2021/05/16 01:10:36;;;;;;;4.78;0.90;;;9.90;97.80;;;;;;5055798;28;20028;-75
2021/05/16 01:13:04;;;;;;;2.65;0.57;;;9.90;98.00;;;;;;5072913;28;20117;-77
2021/05/16 01:15:32;;;;;;;7.07;0.80;;;9.90;97.90;;;;;;5073388;28;20121;-76
2021/05/16 01:17:58;;;;;;;3.17;1.00;;;9.80;98.20;;;;;;5055235;28;20078;-77
2021/05/16 01:20:31;;;;;;;2.72;0.80;;;9.90;97.80;;;;;;5073067;28;20484;-76
2021/05/16 01:23:07;;;;;;;4.38;0.77;;;9.90;97.20;;;;;;5054962;28;20033;-76
2021/05/16 01:25:44;;;;;;;2.10;0.73;;;9.90;97.20;;;;;;5031449;28;20033;-75
2021/05/16 01:28:11;;;;;;;3.17;0.70;;;9.90;97.30;;;;;;5077005;28;20028;-76
2021/05/16 01:30:37;;;;;;;2.85;1.13;;;9.80;97.60;;;;;;5073542;28;20089;-77
2021/05/16 01:33:03;;;;;;;3.47;0.93;;;9.80;97.90;;;;;;5072765;28;20135;-76
2021/05/16 01:35:30;;;;;;;6.68;1.33;;;9.90;97.70;;;;;;5055147;28;20090;-74
2021/05/16 01:37:56;;;;;;;1.95;0.82;;;9.90;97.70;;;;;;5069252;28;20155;-74
2021/05/16 01:40:23;;;;;;;5.30;0.90;;;9.90;97.60;;;;;;5050864;28;20063;-73
2021/05/16 01:42:51;;;;;;;2.75;0.60;;;9.90;97.60;;;;;;5066651;28;20027;-74
2021/05/16 01:45:19;;;;;;;4.90;1.17;;;9.90;97.50;;;;;;5044921;28;20032;-74
2021/05/16 01:47:45;;;;;;;3.55;1.15;;;9.90;97.50;;;;;;5047508;28;20025;-74
2021/05/16 01:50:14;;;;;;;4.53;1.00;;;9.90;97.60;;;;;;5064711;28;20074;-74
2021/05/16 01:52:42;;;;;;;0.77;0.63;;;9.90;98.70;;;;;;5065741;28;20069;-68
2021/05/16 01:55:09;;;;;;;3.47;0.82;;;9.80;99.90;;;;;;5067163;28;20075;-73
2021/05/16 01:57:35;;;;;;;5.85;1.17;;;9.80;99.90;;;;;;5070995;28;20029;-76
2021/05/16 02:00:03;;;;;;;2.83;1.00;;;9.80;99.90;;;;;;5065275;28;20701;-76
2021/05/16 02:02:29;;;;;;;2.58;0.90;;;9.70;99.90;;;;;;5070907;28;20044;-75
2021/05/16 02:04:56;;;;;;;4.13;0.80;;;9.70;99.90;;;;;;5067120;28;20055;-73
2021/05/16 02:07:22;;;;;;;5.50;1.30;;;9.70;99.90;;;;;;5068538;28;20085;-73
2021/05/16 02:09:48;;;;;;;3.28;1.20;;;9.70;99.90;;;;;;5069819;28;20028;-73
2021/05/16 02:12:17;;;;;;;7.10;1.00;;;9.70;99.90;;;;;;5068146;28;20021;-72
2021/05/16 02:14:44;;;;;;;5.88;1.40;;;9.70;99.90;;;;;;5049657;28;20033;-70
2021/05/16 02:17:11;;;;;;;3.22;0.90;;;9.60;99.90;;;;;;5070427;28;20027;-74
2021/05/16 02:19:37;;;;;;;2.83;0.98;;;9.70;99.90;;;;;;5067175;28;20021;-74
2021/05/16 02:22:03;;;;;;;4.10;0.90;;;9.70;99.90;;;;;;5046615;28;20028;-73
2021/05/16 02:24:29;;;;;;;3.70;1.25;;;9.70;99.90;;;;;;5068301;28;20060;-73
2021/05/16 02:26:59;;;;;;;3.30;0.85;;;9.70;99.90;;;;;;5051854;28;20488;-74
2021/05/16 02:29:25;;;;;;;;;;;9.70;99.90;;;;;;5064763;28;20540;-75
2021/05/16 02:31:51;;;;;;;2.72;1.15;;;9.70;99.90;;;;;;5027532;28;20001;-77
2021/05/16 02:34:17;;;;;;;4.20;1.35;;;9.70;99.90;;;;;;5006355;28;20121;-76
2021/05/16 02:36:43;;;;;;;5.78;1.17;;;9.70;99.90;;;;;;5004701;28;20132;-68
2021/05/16 02:39:08;;;;;;;5.78;1.20;;;9.80;99.90;;;;;;5025274;28;20060;-72
2021/05/16 02:41:34;;;;;;;3.75;0.90;;;9.70;99.90;;;;;;5022831;28;20520;-77
2021/05/16 02:44:00;;;;;;;3.42;0.85;;;9.70;99.90;;;;;;5003589;28;20037;-74
2021/05/16 02:46:25;;;;;;;6.72;1.13;;;9.70;99.90;;;;;;5026513;28;20580;-74
2021/05/16 02:48:51;;;;;;;4.97;1.42;;;9.70;99.90;;;;;;5025938;28;20049;-75
2021/05/16 02:51:17;;;;;;;3.95;0.80;;;9.70;99.90;;;;;;5027174;28;20044;-72
2021/05/16 02:53:44;;;;;;;2.38;0.90;;;9.70;99.90;;;;;;5023639;28;20117;-70
2021/05/16 02:56:09;;;;;;;4.05;1.25;;;9.70;99.90;;;;;;5003905;28;20407;-75
2021/05/16 02:58:35;;;;;;;3.05;0.80;;;9.70;99.90;;;;;;5027145;28;20080;-75
2021/05/16 03:01:01;;;;;;;7.30;1.27;;;9.60;99.90;;;;;;5024611;28;20603;-75
2021/05/16 03:03:26;;;;;;;3.83;0.98;;;9.60;99.90;;;;;;5054794;28;20151;-75
2021/05/16 03:05:52;;;;;;;5.25;0.90;;;9.60;99.90;;;;;;5050011;28;20020;-74
2021/05/16 03:08:17;;;;;;;3.55;0.80;;;9.60;99.90;;;;;;5071429;28;20021;-75
2021/05/16 03:10:44;;;;;;;5.85;1.08;;;9.50;99.90;;;;;;5070941;28;20025;-69
2021/05/16 03:13:09;;;;;;;0.68;0.60;;;9.50;99.90;;;;;;5071784;28;20027;-75
2021/05/16 03:15:35;;;;;;;3.90;1.20;;;9.50;99.90;;;;;;5071293;28;20028;-75
2021/05/16 03:18:01;;;;;;;3.67;1.15;;;9.50;99.90;;;;;;5070510;28;20272;-75
2021/05/16 03:20:27;;;;;;;4.43;1.02;;;9.40;99.90;;;;;;5053033;28;20077;-75
2021/05/16 03:22:52;;;;;;;2.50;1.20;;;9.40;99.90;;;;;;5070816;28;20028;-74
2021/05/16 03:25:18;;;;;;;2.10;1.00;;;9.40;99.90;;;;;;5071395;28;20039;-74
2021/05/16 03:27:44;;;;;;;3.65;1.17;;;9.40;99.90;;;;;;5052934;28;20036;-69
2021/05/16 03:30:11;;;;;;;2.95;1.00;;;9.40;99.90;;;;;;5071191;28;20461;-75
2021/05/16 03:32:39;;;;;;;4.80;0.82;;;9.40;99.90;;;;;;5053150;28;20036;-73
2021/05/16 03:35:05;;;;;;;3.05;1.20;;;9.40;99.90;;;;;;5070855;28;20156;-74
2021/05/16 03:37:31;;;;;;;2.35;0.88;;;9.40;99.90;;;;;;5070653;28;20036;-75
2021/05/16 03:39:57;;;;;;;15.57;2.85;;;9.50;99.90;;;;;;5042980;28;20028;-74
2021/05/16 03:42:22;;;;;;;15.20;4.30;;;9.50;99.90;;;;;;5071253;28;20549;-74
2021/05/16 03:44:48;;;;;;;4.53;1.55;;;9.50;99.90;;;;;;5052361;28;20040;-74
2021/05/16 03:47:14;;;;;;;3.97;1.05;;;9.50;99.90;;;;;;5070373;28;20021;-72
2021/05/16 03:49:40;;;;;;;2.45;1.00;;;9.50;99.90;;;;;;5071451;28;20541;-75
2021/05/16 03:52:06;;;;;;;2.85;1.00;;;9.50;99.90;;;;;;5052695;28;20119;-75
2021/05/16 03:54:32;;;;;;;7.35;0.70;;;9.60;99.90;;;;;;5070984;28;20028;-74
2021/05/16 03:56:58;;;;;;;6.60;1.70;;;9.60;99.90;;;;;;5052463;28;20067;-75
2021/05/16 03:59:24;;;;;;;2.55;0.90;;;9.60;99.90;;;;;;5069408;28;20470;-74
2021/05/16 04:01:50;;;;;;;3.25;0.98;;;9.60;99.90;;;;;;5087659;28;20119;-73
2021/05/16 04:04:16;;;;;;;3.58;1.08;;;9.60;99.90;;;;;;5067198;28;20076;-74
2021/05/16 04:06:42;;;;;;;6.65;1.73;;;9.70;99.90;;;;;;5086978;28;20060;-68
2021/05/16 04:09:08;;;;;;;2.33;0.82;;;9.70;99.90;;;;;;5088374;28;20039;-74
2021/05/16 04:11:34;;;;;;;1.70;0.68;;;9.70;99.90;;;;;;5073426;28;20036;-74
2021/05/16 04:14:00;;;;;;;3.30;0.85;;;9.70;99.90;;;;;;5093018;28;20028;-72
2021/05/16 04:16:25;;;;;;;4.85;1.00;;;9.60;99.90;;;;;;5071355;28;20455;-73
2021/05/16 04:18:51;;;;;;;2.58;1.00;;;9.60;99.90;;;;;;5087807;28;20035;-72
2021/05/16 04:21:17;;;;;;;4.55;0.90;;;9.50;99.90;;;;;;5072046;28;20341;-72
2021/05/16 04:23:42;;;;;;;1.75;0.80;;;9.50;99.90;;;;;;5088354;28;20484;-69
2021/05/16 04:26:08;;;;;;;2.65;0.90;;;9.40;99.90;;;;;;5091622;28;20154;-73
2021/05/16 04:28:34;;;;;;;2.97;1.00;;;9.40;99.90;;;;;;5092639;28;20508;-74
2021/05/16 04:30:59;;;;;;;2.45;0.75;;;9.30;99.90;;;;;;5091751;28;20108;-73
2021/05/16 04:33:25;;;;;;;3.42;0.80;;;9.40;99.90;;;;;;5086169;28;20123;-73
2021/05/16 04:35:51;;;;;;;7.45;1.23;;;9.40;99.90;;;;;;5092566;28;20032;-71
2021/05/16 04:38:16;;;;;;;1.75;0.90;;;9.40;99.90;;;;;;5094465;28;20056;-72
2021/05/16 04:40:45;;;;;;;3.03;0.90;;;9.40;99.90;;;;;;5094511;28;20031;-73
2021/05/16 04:43:12;;;;;;;2.47;0.47;;;9.40;99.90;;;;;;5094263;28;20154;-72
2021/05/16 04:45:38;;;;;;;1.80;0.60;;;9.40;99.90;;;;;;5093136;28;20067;-73
2021/05/16 04:48:04;;;;;;;3.70;0.90;;;9.40;99.90;;;;;;5093781;28;20521;-71
2021/05/16 04:50:29;;;;;;;2.38;0.65;;;9.50;99.90;;;;;;5093020;28;20032;-73
2021/05/16 04:52:55;;;;;;;3.22;0.73;;;9.50;99.90;;;;;;5092698;28;20385;-72
2021/05/16 04:55:21;;;;;;;1.02;0.50;;;9.50;99.90;;;;;;5094515;28;20056;-73
2021/05/16 04:57:46;;;;;;;2.17;0.57;;;9.50;99.90;;;;;;5093306;28;20028;-70
2021/05/16 05:00:13;;;;;;;4.80;1.33;;;9.60;99.90;;;;;;5076923;28;20520;-73
2021/05/16 05:02:41;;;;;;;2.50;0.70;;;9.70;99.90;;;;;;5073940;28;20035;-73
2021/05/16 05:05:08;;;;;;;4.20;1.02;;;9.70;99.90;;;;;;5055269;28;20465;-73
2021/05/16 05:07:34;;;;;;;5.03;0.90;;;9.70;99.90;;;;;;5073827;28;20108;-73
2021/05/16 05:09:59;;;;;;;3.25;0.75;;;9.70;99.90;;;;;;5055303;28;20443;-73
2021/05/16 05:12:25;;;;;;;2.97;0.63;;;9.80;99.90;;;;;;5055623;28;20033;-71
2021/05/16 05:14:51;;;;;;;1.65;0.70;;;9.90;99.90;;;;;;5073257;28;20035;-72
2021/05/16 05:17:18;;;;;;;1.48;0.65;;;10.00;99.90;;;;;;5073748;28;20462;-73
2021/05/16 05:19:43;;;;;;;1.17;0.50;;;10.10;99.90;;;;;;5055510;28;20056;-73
2021/05/16 05:22:09;;;;;;;1.90;0.70;;;10.30;99.90;;;;;;5072817;28;20492;-74
2021/05/16 05:24:35;;;;;;;3.15;0.93;;;10.40;99.90;;;;;;5073288;28;20401;-72
2021/05/16 05:27:00;;;;;;;3.05;1.15;;;10.40;99.90;;;;;;5051154;28;20469;-73
2021/05/16 05:29:26;;;;;;;3.35;0.80;;;10.40;99.90;;;;;;5068200;28;20458;-73
2021/05/16 05:31:51;;;;;;;3.38;0.75;;;10.40;99.90;;;;;;5071873;28;20028;-74
2021/05/16 05:34:17;;;;;;;1.83;0.70;;;10.40;99.90;;;;;;5073415;28;20033;-74
2021/05/16 05:36:43;;;;;;;2.63;0.50;;;10.40;99.90;;;;;;5069439;28;20074;-75
2021/05/16 05:39:09;;;;;;;1.25;0.52;;;10.40;99.90;;;;;;5074793;28;20073;-74
2021/05/16 05:41:35;;;;;;;4.55;0.88;;;10.40;99.90;;;;;;5055361;28;20033;-73
2021/05/16 05:44:01;;;;;;;6.28;0.73;;;10.30;99.90;;;;;;5072476;28;20032;-73
2021/05/16 05:46:29;;;;;;;2.45;0.65;;;10.20;99.90;;;;;;5073514;28;20032;-74
2021/05/16 05:48:54;;;;;;;2.85;0.70;;;10.20;99.90;;;;;;5072275;28;20527;-73
2021/05/16 05:51:21;;;;;;;3.30;0.60;;;10.10;99.90;;;;;;5055232;28;20036;-73
2021/05/16 05:53:46;;;;;;;1.75;0.40;;;10.00;99.90;;;;;;5072962;28;20085;-69
2021/05/16 05:56:12;;;;;;;1.42;0.60;;;9.90;99.90;;;;;;5072351;28;20111;-72
2021/05/16 05:58:39;;;;;;;2.33;0.60;;;9.90;99.90;;;;;;5059351;28;20125;-73
2021/05/16 06:01:05;;;;;;;1.92;0.60;;;9.90;99.90;;;;;;5092092;28;20380;-74
2021/05/16 06:03:31;;;;;;;1.10;0.57;;;9.90;99.90;;;;;;5093496;28;20449;-72
2021/05/16 06:05:56;;;;;;;1.05;0.60;;;9.90;99.90;;;;;;5090840;28;20039;-72
2021/05/16 06:08:22;;;;;;;1.85;0.82;;;9.90;99.90;;;;;;5093119;28;20035;-73
2021/05/16 06:10:48;;;;;;;2.30;0.70;;;9.90;99.90;;;;;;5092683;28;20020;-69
2021/05/16 06:13:14;;;;;;;1.65;0.63;;;10.00;99.90;;;;;;5091676;28;20024;-73
2021/05/16 06:15:40;;;;;;;1.30;0.50;;;10.00;99.90;;;;;;5092479;28;20384;-72
2021/05/16 06:18:06;;;;;;;2.60;0.70;;;10.10;99.90;;;;;;5092355;28;20024;-71
2021/05/16 06:20:33;;;;;;;1.42;0.50;;;10.20;99.90;;;;;;5089538;28;20480;-72
2021/05/16 06:23:00;;;;;;;1.20;0.50;;;10.30;99.90;;;;;;5084313;28;20415;-74
2021/05/16 06:25:26;;;;;;;3.15;0.95;;;10.40;99.90;;;;;;5091081;28;20508;-74
2021/05/16 06:27:52;;;;;;;3.17;0.80;;;10.50;99.90;;;;;;5091791;28;20029;-72
2021/05/16 06:30:20;;;;;;;3.10;1.08;;;10.50;99.90;;;;;;5092408;28;20043;-71
2021/05/16 06:32:46;;;;;;;3.17;0.95;;;10.50;99.90;;;;;;5091593;28;20023;-73
2021/05/16 06:35:12;;;;;;;3.83;0.77;;;10.50;99.90;;;;;;5090371;28;20450;-72
2021/05/16 06:37:38;;;;;;;2.10;0.57;;;10.60;99.90;;;;;;5092549;28;20035;-72
2021/05/16 06:40:04;;;;;;;4.13;0.75;;;10.80;99.90;;;;;;5091610;28;20028;-72
2021/05/16 06:42:30;;;;;;;3.92;0.60;;;10.80;99.90;;;;;;5090756;28;20035;-72
2021/05/16 06:44:56;;;;;;;1.92;0.50;;;10.90;99.90;;;;;;5087192;28;20724;-74
2021/05/16 06:47:23;;;;;;;1.60;0.50;;;11.00;99.90;;;;;;5085363;28;20122;-72
2021/05/16 06:49:52;;;;;;;2.35;0.60;;;11.10;99.90;;;;;;5082887;28;20380;-72
2021/05/16 06:52:22;;;;;;;2.17;0.40;;;11.20;99.90;;;;;;5087742;28;20024;-72
2021/05/16 06:54:48;;;;;;;3.20;0.73;;;11.40;99.90;;;;;;5084641;28;20189;-70
2021/05/16 06:57:18;;;;;;;2.10;0.65;;;11.50;99.90;;;;;;5088563;28;20032;-74
2021/05/16 06:59:45;;;;;;;1.85;0.52;;;11.80;98.70;;;;;;5085595;28;20044;-75
2021/05/16 07:02:10;;;;;;;3.08;0.95;;;12.10;97.60;;;;;;5083318;28;20616;-73
2021/05/16 07:04:36;;;;;;;1.50;0.47;;;12.30;97.10;;;;;;5085401;28;20036;-73
2021/05/16 07:07:02;;;;;;;1.90;0.70;;;12.60;95.00;;;;;;5081121;28;20028;-73
2021/05/16 07:09:28;;;;;;;5.53;0.77;;;12.80;92.60;;;;;;5084726;28;20020;-73
2021/05/16 07:11:54;;;;;;;2.13;0.55;;;12.90;91.60;;;;;;5087422;28;20039;-74
2021/05/16 07:14:19;;;;;;;3.17;0.70;;;13.10;89.80;;;;;;5089912;28;20031;-74
2021/05/16 07:16:45;;;;;;;2.30;0.52;;;13.30;89.60;;;;;;5085666;28;20028;-73
2021/05/16 07:19:11;;;;;;;2.15;0.90;;;13.40;90.10;;;;;;5089210;28;20730;-74
2021/05/16 07:21:37;;;;;;;2.67;0.70;;;13.50;88.70;;;;;;5091493;28;20036;-72
2021/05/16 07:24:03;;;;;;;2.03;0.60;;;13.60;88.00;;;;;;5089512;28;20036;-73
2021/05/16 07:26:29;;;;;;;2.10;0.50;;;13.60;88.10;;;;;;5090817;28;20039;-73
2021/05/16 07:28:54;;;;;;;2.85;0.65;;;13.50;88.50;;;;;;5090913;28;20031;-72
2021/05/16 07:31:20;;;;;;;2.60;0.77;;;13.50;85.80;;;;;;5088743;28;20103;-70
2021/05/16 07:33:46;;;;;;;2.88;0.60;;;13.40;86.70;;;;;;5090280;28;20542;-73
2021/05/16 07:36:12;;;;;;;0.40;0.40;;;13.40;87.90;;;;;;5085809;28;20629;-72
2021/05/16 07:38:38;;;;;;;2.38;0.60;;;13.40;85.80;;;;;;5091717;28;20040;-73
2021/05/16 07:41:03;;;;;;;1.05;0.45;;;13.40;85.40;;;;;;5088863;28;20028;-74
2021/05/16 07:43:29;;;;;;;1.63;0.60;;;13.30;85.00;;;;;;5090044;28;20025;-73
2021/05/16 07:45:56;;;;;;;2.75;0.50;;;13.30;85.70;;;;;;5089775;28;20020;-72
2021/05/16 07:48:30;;;;;;;3.15;0.70;;;13.30;84.50;;;;;;5091290;28;20031;-72
2021/05/16 07:50:58;;;;;;;3.35;0.77;;;13.40;84.80;;;;;;5067831;28;20040;-74
2021/05/16 07:53:25;;;;;;;3.30;0.75;;;13.50;82.60;;;;;;5068221;28;20052;-73
2021/05/16 07:55:51;;;;;;;2.95;0.82;;;13.50;79.80;;;;;;5071562;28;20033;-68
2021/05/16 07:58:17;;;;;;;2.22;0.70;;;13.60;79.50;;;;;;5055465;28;20024;-72
2021/05/16 08:00:43;;;;;;;1.38;0.60;;;13.70;80.20;;;;;;5056240;28;20616;-74
2021/05/16 08:03:09;;;;;;;1.30;0.52;;;13.80;80.00;;;;;;5061384;28;20117;-75
2021/05/16 08:05:34;;;;;;;2.55;0.68;;;13.90;77.50;;;;;;5071883;28;20049;-76
2021/05/16 08:08:00;;;;;;;2.83;0.85;;;14.00;76.20;;;;;;5019959;28;20033;-74
2021/05/16 08:10:27;;;;;;;1.77;0.90;;;14.00;76.40;;;;;;5066890;28;20378;-77
2021/05/16 08:12:53;;;;;;;2.47;0.70;;;14.00;77.20;;;;;;5071731;28;20024;-69
2021/05/16 08:15:20;;;;;;;4.60;0.95;;;13.80;82.60;;;;;;5072092;28;20040;-76
2021/05/16 08:17:46;;;;;;;6.28;0.88;;;13.50;87.30;;;;;;5072739;28;20477;-77
2021/05/16 08:20:12;;;;;;;4.20;1.00;;;13.20;91.10;;;;;;5071241;28;20117;-74
2021/05/16 08:22:38;;;;;;;2.95;0.63;;;12.80;92.40;;;;;;5089714;28;20040;-77
2021/05/16 08:25:06;;;;;;;3.05;0.73;;;12.60;92.40;;;;;;5094831;28;20040;-75
2021/05/16 08:27:32;;;;;;;1.88;0.60;;;12.50;93.60;;;;;;5095491;28;20020;-74
2021/05/16 08:29:57;;;;;;;1.33;0.60;;;12.40;95.30;;;;;;5093044;28;20074;-76
2021/05/16 08:32:23;;;;;;;2.10;0.90;;;12.30;95.60;;;;;;5093940;28;20040;-73
2021/05/16 08:34:49;;;;;;;3.33;0.52;;;12.40;96.50;;;;;;5093509;28;20035;-73
2021/05/16 08:37:15;;;;;;;4.55;0.95;;;12.30;96.70;;;;;;5091739;28;20485;-77
2021/05/16 08:39:42;;;;;;;4.45;0.70;;;12.50;99.00;;;;;;5093826;28;20028;-75
2021/05/16 08:42:08;;;;;;;4.95;1.10;;;12.70;98.90;;;;;;5092166;28;20118;-77
2021/05/16 08:44:34;;;;;;;5.65;0.73;;;13.00;94.80;;;;;;5094214;28;20127;-73
2021/05/16 08:47:01;;;;;;;2.88;0.93;;;13.20;96.20;;;;;;5092401;28;20082;-77
2021/05/16 08:49:27;;;;;;;1.70;0.70;;;13.30;96.30;;;;;;5094516;28;20028;-77
2021/05/16 08:51:53;;;;;;;3.38;1.30;;;13.40;95.90;;;;;;5094097;28;20442;-72
2021/05/16 08:54:20;;;;;;;6.53;1.05;;;13.70;93.10;;;;;;5095133;28;20024;-81
2021/05/16 08:56:54;;;;;;;2.33;0.90;;;13.80;89.70;;;;;;5072909;28;20032;-76
2021/05/16 08:59:21;;;;;;;4.13;1.20;;;13.90;89.70;;;;;;5081516;28;20049;-75
2021/05/16 09:01:49;;;;;;;3.33;1.00;;;14.00;87.50;;;;;;5073656;28;20470;-76
2021/05/16 09:04:35;;;;;;;2.85;1.00;;;14.20;86.80;;;;;;5064664;28;20729;-76
2021/05/16 09:07:02;;;;;;;2.78;1.00;;;14.30;87.70;;;;;;5068347;28;20038;-81
2021/05/16 09:09:30;;;;;;;4.90;1.13;;;14.60;86.50;;;;;;5073126;28;20051;-74
2021/05/16 09:12:03;;;;;;;6.18;1.42;;;14.80;79.20;;;;;;5073814;28;20036;-75
2021/05/16 09:14:48;;;;;;;3.28;1.13;;;15.10;79.70;;;;;;5073486;28;20032;-78
2021/05/16 09:17:26;;;;;;;5.55;1.95;;;15.40;77.00;;;;;;5073493;28;20765;-78
2021/05/16 09:20:01;;;;;;;4.85;1.10;;;15.70;74.60;;;;;;5072094;28;20120;-71
2021/05/16 09:22:43;;;;;;;2.85;0.95;;;16.00;71.20;;;;;;5070546;28;20035;-80
2021/05/16 09:25:26;;;;;;;5.07;1.05;;;16.10;69.50;;;;;;5072752;28;20041;-80
2021/05/16 09:28:13;;;;;;;5.63;1.50;;;16.10;69.00;;;;;;5052819;28;20063;-73
2021/05/16 09:30:41;;;;;;;6.47;1.17;;;16.10;65.60;;;;;;5073409;28;20110;-80
2021/05/16 09:33:13;;;;;;;5.32;1.23;;;16.20;65.20;;;;;;5071880;28;20025;-81
2021/05/16 09:35:47;;;;;;;3.47;1.00;;;16.40;65.70;;;;;;5073596;28;20111;-80
2021/05/16 09:38:15;;;;;;;6.78;1.38;;;16.70;65.70;;;;;;5071348;28;20033;-79
2021/05/16 09:40:44;;;;;;;4.90;0.98;;;17.00;62.80;;;;;;5073271;28;20025;-77
2021/05/16 09:43:22;;;;;;;5.22;1.20;;;17.30;61.10;;;;;;5073219;28;20048;-81
2021/05/16 09:46:02;;;;;;;4.72;0.98;;;17.40;60.90;;;;;;5073281;28;20078;-75
2021/05/16 09:48:36;;;;;;;4.68;1.10;;;17.50;57.90;;;;;;5071212;28;20487;-80
2021/05/16 09:51:21;;;;;;;5.72;1.33;;;17.60;58.90;;;;;;5072287;28;20052;-74
2021/05/16 09:53:51;;;;;;;5.53;1.00;;;17.70;58.20;;;;;;5071346;28;20389;-76
2021/05/16 09:56:21;;;;;;;3.63;1.45;;;17.90;54.70;;;;;;5072671;28;20028;-76
2021/05/16 09:58:48;;;;;;;4.57;1.13;;;18.00;54.00;;;;;;5067821;28;20052;-77
2021/05/16 10:01:19;;;;;;;2.80;1.00;;;18.10;54.40;;;;;;5071587;28;20326;-74
2021/05/16 10:03:46;;;;;;;3.78;1.20;;;18.20;54.10;;;;;;5054482;28;20119;-76
2021/05/16 10:06:15;;;;;;;6.93;1.58;;;18.30;54.30;;;;;;5053797;28;20021;-73
2021/05/16 10:08:47;;;;;;;4.07;1.42;;;18.20;54.50;;;;;;5072599;28;20031;-73
2021/05/16 10:11:15;;;;;;;4.15;1.23;;;18.30;54.10;;;;;;5072120;28;20024;-75
2021/05/16 10:13:44;;;;;;;5.45;1.60;;;18.40;53.00;;;;;;5054227;28;20469;-72
2021/05/16 10:16:14;;;;;;;4.60;1.52;;;18.50;52.50;;;;;;5070766;28;20489;-70
2021/05/16 10:18:41;;;;;;;6.00;1.30;;;18.80;51.40;;;;;;5053917;28;20448;-74
2021/05/16 10:21:07;;;;;;;5.38;1.38;;;19.10;50.80;;;;;;5071588;28;20036;-71
2021/05/16 10:23:38;;;;;;;4.35;1.45;;;19.20;49.70;;;;;;5071853;28;20116;-73
2021/05/16 10:26:20;;;;;;;3.30;0.85;;;19.10;50.00;;;;;;5054392;28;20055;-74
2021/05/16 10:28:59;;;;;;;5.78;1.10;;;19.10;50.80;;;;;;5071531;28;20094;-73
2021/05/16 10:31:48;;;;;;;4.10;1.08;;;19.00;49.40;;;;;;5072303;28;20025;-84
2021/05/16 10:34:45;;;;;;;;;;;;;;;;;;;;;
2021/05/16 10:37:36;;;;;;;4.85;1.40;;;19.30;48.90;;;;;;5068928;28;20036;-77
2021/05/16 10:40:30;;;;;;;4.28;1.38;;;19.30;49.40;;;;;;5053506;28;20130;-81
2021/05/16 10:42:59;;;;;;;2.58;1.15;;;19.30;48.80;;;;;;5054522;28;20036;-75
2021/05/16 10:45:39;;;;;;;4.57;1.13;;;19.20;47.80;;;;;;5053548;28;20040;-75
2021/05/16 10:48:08;;;;;;;;;;;19.30;48.60;;;;;;5064313;28;20035;-76
2021/05/16 10:51:13;;;;;;;5.40;1.00;;;19.40;48.20;;;;;;5053759;28;19942;-76
2021/05/16 10:53:47;;;;;;;2.40;0.80;;;19.20;48.20;;;;;;5025893;28;20032;-77
2021/05/16 10:56:47;;;;;;;5.13;1.30;;;19.00;48.40;;;;;;5052826;28;20028;-73
2021/05/16 10:59:36;;;;;;;5.60;1.17;;;18.50;50.00;;;;;;5058789;28;20123;-74
2021/05/16 11:02:37;;;;;;;5.28;1.15;;;18.20;50.90;;;;;;5069814;28;20040;-76
2021/05/16 11:05:27;;;;;;;5.55;1.08;;;18.30;50.70;;;;;;5070096;28;20053;-76
2021/05/16 11:08:18;;;;;;;3.25;1.13;;;18.70;50.20;;;;;;5051159;28;20093;-74
2021/05/16 11:10:45;;;;;;;2.63;1.13;;;19.00;48.90;;;;;;5060830;28;20036;-75
2021/05/16 11:13:32;;;;;;;4.40;1.63;;;19.10;47.60;;;;;;5052583;28;20036;-76
2021/05/16 11:16:13;;;;;;;7.28;1.83;;;19.40;47.60;;;;;;5052247;28;20056;-73
2021/05/16 11:18:50;;;;;;;3.63;1.30;;;19.70;47.30;;;;;;5069321;28;20179;-73
2021/05/16 11:24:18;;;;;;;4.95;1.05;;;20.10;46.70;;;;;;5065932;28;20036;-75
2021/05/16 11:26:46;;;;;;;3.05;0.95;;;20.00;45.60;;;;;;5053370;28;20020;-76
2021/05/16 11:29:18;;;;;;;3.05;1.00;;;20.10;44.70;;;;;;5070222;28;20035;-74
2021/05/16 11:31:44;;;;;;;5.50;1.08;;;20.40;46.60;;;;;;5050233;28;20089;-77
2021/05/16 11:34:33;;;;;;;5.78;1.08;;;20.60;43.50;;;;;;5070912;28;20024;-76
2021/05/16 11:37:15;;;;;;;4.55;1.50;;;20.80;43.70;;;;;;5070169;28;20029;-75
2021/05/16 11:39:49;;;;;;;4.80;1.10;;;21.00;44.10;;;;;;5052017;28;20473;-78
2021/05/16 11:42:45;;;;;;;5.15;1.42;;;21.10;43.20;;;;;;5070051;28;20106;-77
2021/05/16 11:45:20;;;;;;;4.15;1.60;;;21.30;43.80;;;;;;5069571;28;20398;-77
2021/05/16 11:47:49;;;;;;;3.55;0.88;;;21.60;41.60;;;;;;5060546;28;20055;-79
2021/05/16 11:50:19;;;;;;;2.17;0.80;;;21.80;40.90;;;;;;5070405;28;20426;-78
2021/05/16 11:52:51;;;;;;;4.05;1.00;;;21.90;39.60;;;;;;5071458;28;20051;-79
2021/05/16 11:55:30;;;;;;;3.15;1.10;;;21.90;40.50;;;;;;5052456;28;20117;-77
2021/05/16 11:58:09;;;;;;;2.70;0.70;;;22.30;39.80;;;;;;5052227;28;20040;-77
2021/05/16 12:00:38;;;;;;;2.00;0.90;;;22.70;39.00;;;;;;5070444;28;20048;-76
2021/05/16 12:03:14;;;;;;;3.30;1.00;;;23.00;38.80;;;;;;5051321;28;20424;-77
2021/05/16 12:06:00;;;;;;;2.33;0.77;;;23.00;38.30;;;;;;5052737;28;20040;-75
2021/05/16 12:09:00;;;;;;;5.60;1.30;;;23.10;38.40;;;;;;5049795;28;20063;-77
2021/05/16 12:11:48;;;;;;;;;;;;;;;;;;;;;
2021/05/16 12:14:25;;;;;;;2.55;1.00;;;23.10;38.60;;;;;;5069881;28;20678;-77
2021/05/16 12:16:57;;;;;;;3.80;1.10;;;22.60;39.90;;;;;;5052881;28;20466;-78
2021/05/16 12:19:40;;;;;;;4.88;1.08;;;22.10;40.50;;;;;;5070846;28;20059;-77
2021/05/16 12:22:08;;;;;;;3.17;1.05;;;21.60;42.20;;;;;;5052682;28;20116;-81
2021/05/16 12:24:45;;;;;;;6.13;1.10;;;21.30;43.00;;;;;;5053397;28;20036;-81
2021/05/16 12:27:32;;;;;;;4.20;1.00;;;21.00;43.00;;;;;;5069870;28;20036;-79
2021/05/16 12:29:58;;;;;;;2.85;1.08;;;20.60;44.00;;;;;;5069580;28;20040;-76
2021/05/16 12:32:44;;;;;;;5.50;1.08;;;20.40;45.10;;;;;;5052524;28;20036;-78
2021/05/16 12:35:25;;;;;;;3.13;1.08;;;20.20;45.60;;;;;;5042004;28;20099;-81
2021/05/16 12:37:56;;;;;;;3.83;1.30;;;20.00;44.50;;;;;;5052829;28;20473;-77
2021/05/16 12:40:30;;;;;;;1.98;0.75;;;19.90;44.70;;;;;;5057130;28;20048;-77
2021/05/16 12:43:04;;;;;;;3.75;1.05;;;19.70;44.40;;;;;;5054962;28;20055;-70
2021/05/16 12:45:35;;;;;;;2.28;1.00;;;19.60;45.40;;;;;;5073726;28;20078;-79
2021/05/16 12:48:06;;;;;;;3.42;1.10;;;19.50;45.60;;;;;;5070892;28;20487;-79
2021/05/16 12:50:38;;;;;;;2.42;0.95;;;19.50;45.10;;;;;;5073316;28;20029;-75
2021/05/16 12:53:42;;;;;;;1.77;0.80;;;19.50;45.70;;;;;;5073643;28;20028;-79
2021/05/16 12:56:39;;;;;;;3.25;1.00;;;19.80;45.00;;;;;;5054773;28;20087;-79
2021/05/16 12:59:11;;;;;;;2.22;1.15;;;20.00;45.00;;;;;;5053092;28;20210;-78
2021/05/16 13:01:50;;;;;;;3.15;1.25;;;20.00;45.30;;;;;;5073204;28;20036;-80
2021/05/16 13:04:22;;;;;;;2.33;0.73;;;20.00;45.60;;;;;;5072568;28;20780;-80
2021/05/16 13:06:55;;;;;;;4.05;1.40;;;19.80;46.40;;;;;;5073982;28;20091;-76
2021/05/16 13:09:28;;;;;;;2.70;1.10;;;19.60;46.50;;;;;;5054788;28;20074;-79